Auk-Alfa, Netherlands

10:30 AM CEST on October 22, 2014 (GMT +0200)
Ekofisk | Change Station
CLOSE
Current Station
Airport
Location: Ekofisk,
Elevation: 10 ft
Nearby Weather Stations

Elev 10 ft 56.55 °N, 3.25 °E | Updated 10 minutes ago

Scattered Clouds
Scattered Clouds
50 °F
Feels Like 50 °F
N
29
Wind Variable Wind from NW

Today
High -- | Low -- °F
--% Chance of Precip.
Yesterday
High -- | Low -- °F
Precip. -- in
8:38 AM 6:33 PM
Waning Crescent, 2% visible
Pressure 29.95 in
Visibility 6.2 miles
Clouds Scattered Clouds 3500 ft
Dew Point 39 °F
Humidity 66%
Rainfall 0.00 in
Snow Depth Not available.
UV 1 out of 12
Pollen Not available.
Air Quality Not available.
Flu Activity Not available.
METAR ENEK 220820Z 31025KT 240V340 9999 SCT035 10/04 Q1014 W12/S6

More Conditions Fewer Conditions

Pressure 29.95 in
Visibility 6.2 miles
Clouds Scattered Clouds 3500 ft
Dew Point 39 °F
Humidity 66%
Rainfall 0.00 in
Snow Depth Not available.
UV 1 out of 12
Pollen Not available.
Air Quality Not available.
Flu Activity Not available.
METAR ENEK 220820Z 31025KT 240V340 9999 SCT035 10/04 Q1014 W12/S6

More Conditions Fewer Conditions

10-Day Weather Forecast

Almanac

Astronomy

Oct. 22, 2014 Rise Set
Actual Time 8:38 AM CEST 6:33 PM CEST
Civil Twilight 7:59 AM CEST 7:11 PM CEST
Nautical Twilight 7:15 AM CEST 7:55 PM CEST
Astronomical Twilight 6:32 AM CEST 8:38 PM CEST
Moon 6:48 AM CEST 6:03 PM CEST
Length of Visible Light 11h 12m
Length of Day
9h 55m
Tomorrow will be 4m 33s shorter.
Waning Crescent, 2% of the Moon is Illuminated
Today
Waning Crescent
Oct 23
New
Oct 30
First Quarter
Nov 6
Full
Nov 14
Last Quarter

Yesterday's Extremes

Country Highs Country Lows

Community

WunderPhotos

Upload Photos

1,763,889 photos uploaded!

Nearby

Snow Depth

Not available.

Earthquake Activity

City Distance Mag. Time & Date
No recent earthquake activity has been reported nearby.
Minimum magnitude displayed is 2.5.

Coastal Water Temperatures

Place Temperature
No Stations Reporting

Nearby Weather Stations